Time;durP1;ratioP1;P1;durP2;ratioP2;P2;SDS_P1;SDS_P2;PMS_P1;PMS_P2;Temp;Humidity;BMP_temperature;BMP_pressure;BME280_temperature;BME280_humidity;BME280_pressure;Samples;Min_cycle;Max_cycle;Signal;HPM_P1;HPM_P2
2022/08/20 05:46:24;;;;;;;;;;;;;;;21.19;77.11;97156.94;4242174;27;10391;-67
2022/08/20 05:48:27;;;;;;;;;;;;;;;21.47;76.73;97159.41;4229401;28;5818;-66
2022/08/20 05:50:30;;;;;;;;;;;;;;;21.69;76.10;97155.88;4222587;27;5708;-66
2022/08/20 05:52:33;;;;;;;;;;;;;;;21.84;75.67;97153.31;4228483;28;5667;-66
2022/08/20 05:54:37;;;;;;;;;;;;;;;21.97;75.38;97154.75;4227796;27;5119;-68
2022/08/20 05:56:40;;;;;;;;;;;;;;;22.12;74.91;97160.31;4232757;27;5738;-68
2022/08/20 05:58:42;;;;;;;;;;;;;;;22.22;74.39;97164.97;4222593;28;5672;-67
2022/08/20 06:00:45;;;;;;;;;;;;;;;22.28;74.43;97153.94;4225925;28;5695;-68
2022/08/20 06:05:10;;;;;;;;;;;;;;;22.35;73.92;97159.94;4223350;28;5659;-68
2022/08/20 06:07:14;;;;;;;;;;;;;;;22.33;73.72;97166.66;4227574;28;5663;-68
2022/08/20 06:09:19;;;;;;;;;;;;;;;22.35;73.57;97159.94;4227336;28;5774;-68
2022/08/20 06:11:33;;;;;;;;;;;;;;;22.40;73.42;97166.41;4229080;27;5877;-67
2022/08/20 06:13:39;;;;;;;;;;;;;;;22.40;73.09;97156.44;4229360;28;5678;-67
2022/08/20 06:15:42;;;;;;;;;;;;;;;22.40;73.11;97156.44;4228467;27;5823;-68
2022/08/20 06:17:45;;;;;;;;;;;;;;;22.43;73.30;97157.84;4231163;27;5650;-68
2022/08/20 06:20:04;;;;;;;;;;;;;;;22.45;73.24;97164.59;4225153;28;5742;-68
2022/08/20 06:22:08;;;;;;;;;;;;;;;22.46;72.82;97160.00;4229461;28;5672;-68
2022/08/20 06:24:26;;;;;;;;;;;;;;;22.45;73.08;97156.50;4228387;28;5678;-68
2022/08/20 06:26:30;;;;;;;;;;;;;;;22.47;72.70;97159.75;4228881;28;5671;-68
2022/08/20 06:28:33;;;;;;;;;;;;;;;22.50;72.45;97167.28;4228646;28;5687;-69
2022/08/20 06:30:36;;;;;;;;;;;;;;;22.54;72.53;97164.91;4229178;27;5653;-69
2022/08/20 06:32:39;;;;;;;;;;;;;;;22.57;72.61;97165.19;4226284;28;5805;-68
2022/08/20 06:34:42;;;;;;;;;;;;;;;22.60;72.42;97170.06;4221082;28;5679;-67
2022/08/20 06:36:56;;;;;;;;;;;;;;;22.62;72.17;97162.50;4219539;28;6008;-67
2022/08/20 06:38:59;;;;;;;;;;;;;;;22.67;72.09;97167.13;4219884;28;5717;-67
2022/08/20 06:41:02;;;;;;;;;;;;;;;22.67;72.21;97165.25;4219629;28;5678;-68
2022/08/20 06:43:08;;;;;;;;;;;;;;;22.67;71.86;97167.94;4221728;28;5699;-67
2022/08/20 06:45:12;;;;;;;;;;;;;;;22.64;71.66;97168.44;4229986;27;5671;-67
2022/08/20 06:47:16;;;;;;;;;;;;;;;22.60;71.34;97172.75;4217439;28;5670;-67
2022/08/20 06:49:18;;;;;;;;;;;;;;;22.57;71.31;97173.28;4216572;28;5668;-67
2022/08/20 06:51:22;;;;;;;;;;;;;;;22.54;71.51;97173.00;4217584;28;5683;-67
2022/08/20 06:53:27;;;;;;;;;;;;;;;22.52;71.22;97181.31;4217084;28;5674;-67
2022/08/20 06:55:31;;;;;;;;;;;;;;;22.51;71.15;97185.06;4218619;28;5680;-67
2022/08/20 06:57:35;;;;;;;;;;;;;;;22.51;71.25;97179.69;4215931;28;5667;-67
2022/08/20 06:59:37;;;;;;;;;;;;;;;22.51;71.23;97177.00;4218647;28;5783;-68
2022/08/20 07:01:40;;;;;;;;;;;;;;;22.51;71.27;97176.19;4209285;28;5760;-67
2022/08/20 07:03:43;;;;;;;;;;;;;;;22.53;71.14;97177.53;4202225;28;5697;-67
2022/08/20 07:05:58;;;;;;;;;;;;;;;22.54;71.15;97178.38;4214713;28;5875;-67
2022/08/20 07:08:01;;;;;;;;;;;;;;;22.55;71.39;97180.00;4218673;28;5731;-67
2022/08/20 07:10:08;;;;;;;;;;;;;;;22.57;71.25;97178.66;4218294;28;5675;-68
2022/08/20 07:12:11;;;;;;;;;;;;;;;22.60;70.71;97180.81;4202172;28;5771;-67
2022/08/20 07:14:14;;;;;;;;;;;;;;;22.60;70.38;97178.13;4202326;28;5180;-67
2022/08/20 07:16:17;;;;;;;;;;;;;;;22.58;70.30;97179.47;4211601;28;5755;-68
2022/08/20 07:18:21;;;;;;;;;;;;;;;22.56;70.61;97181.63;4225691;28;5775;-68
2022/08/20 07:20:32;;;;;;;;;;;;;;;22.53;70.42;97180.22;4218986;28;5691;-68
2022/08/20 07:22:36;;;;;;;;;;;;;;;22.50;70.40;97183.47;4209127;28;5605;-67
2022/08/20 07:24:39;;;;;;;;;;;;;;;22.51;70.63;97184.25;4211856;28;5114;-69
2022/08/20 07:26:45;;;;;;;;;;;;;;;22.50;70.63;97182.66;4213903;28;5675;-68
2022/08/20 07:28:48;;;;;;;;;;;;;;;22.50;70.67;97178.06;4214789;28;5137;-67
2022/08/20 07:33:16;;;;;;;;;;;;;;;22.53;70.14;97180.22;4213480;28;5675;-69
2022/08/20 07:35:20;;;;;;;;;;;;;;;22.54;70.64;97187.28;4205073;28;5663;-68
2022/08/20 07:37:23;;;;;;;;;;;;;;;22.57;70.67;97189.44;4205867;28;5746;-68
2022/08/20 07:39:26;;;;;;;;;;;;;;;22.61;70.28;97195.91;4210197;28;5602;-67
2022/08/20 07:41:33;;;;;;;;;;;;;;;22.64;70.12;97184.63;4213707;28;5679;-68
2022/08/20 07:43:38;;;;;;;;;;;;;;;22.66;70.25;97198.66;4215659;28;5671;-68
2022/08/20 07:45:41;;;;;;;;;;;;;;;22.64;70.37;97189.19;4209466;28;5645;-67
2022/08/20 07:47:52;;;;;;;;;;;;;;;22.68;70.16;97195.69;4215044;28;8057;-67
2022/08/20 07:49:55;;;;;;;;;;;;;;;22.73;69.90;97194.91;4215775;28;5726;-68
2022/08/20 07:51:58;;;;;;;;;;;;;;;22.75;70.28;97198.16;4212889;28;5875;-67
2022/08/20 07:54:01;;;;;;;;;;;;;;;22.73;70.31;97192.22;4213269;28;5683;-68
2022/08/20 07:56:06;;;;;;;;;;;;;;;22.73;70.44;97194.91;4207236;28;5675;-67
2022/08/20 07:58:11;;;;;;;;;;;;;;;22.70;69.96;97203.53;4215149;28;5675;-68
2022/08/20 08:00:17;;;;;;;;;;;;;;;22.63;70.26;97196.47;4216229;28;5805;-67
2022/08/20 08:02:20;;;;;;;;;;;;;;;22.57;70.02;97194.81;4210635;28;5785;-68
2022/08/20 08:04:24;;;;;;;;;;;;;;;22.59;70.55;97199.94;4208052;28;5861;-68
2022/08/20 08:06:29;;;;;;;;;;;;;;;22.64;70.47;97195.41;4219072;28;5841;-67
2022/08/20 08:08:34;;;;;;;;;;;;;;;22.71;70.02;97194.38;4217121;28;5672;-68
2022/08/20 08:10:38;;;;;;;;;;;;;;;22.72;70.23;97196.00;4215038;28;5743;-68
2022/08/20 08:12:46;;;;;;;;;;;;;;;22.72;69.91;97198.69;4216145;28;5806;-67
2022/08/20 08:14:50;;;;;;;;;;;;;;;22.73;70.28;97205.69;4215171;28;5719;-68
2022/08/20 08:16:57;;;;;;;;;;;;;;;22.74;69.81;97199.22;4215680;28;6474;-68
2022/08/20 08:19:00;;;;;;;;;;;;;;;22.74;69.94;97199.22;4217987;28;5675;-68
2022/08/20 08:21:05;;;;;;;;;;;;;;;22.74;69.68;97210.00;4216105;28;5675;-68
2022/08/20 08:23:10;;;;;;;;;;;;;;;22.74;69.90;97207.31;4200574;28;5775;-68
2022/08/20 08:25:33;;;;;;;;;;;;;;;22.74;69.55;97204.63;4215827;28;5679;-67
2022/08/20 08:27:36;;;;;;;;;;;;;;;22.76;69.82;97210.56;4216644;28;5675;-67
2022/08/20 08:29:40;;;;;;;;;;;;;;;22.79;69.74;97218.13;4216399;28;5692;-67
2022/08/20 08:31:43;;;;;;;;;;;;;;;22.79;69.29;97212.75;4217654;28;5742;-68
2022/08/20 08:33:47;;;;;;;;;;;;;;;22.77;69.28;97214.91;4214684;28;5683;-68
2022/08/20 08:35:50;;;;;;;;;;;;;;;22.76;69.74;97210.56;4214186;28;5794;-68
2022/08/20 08:37:53;;;;;;;;;;;;;;;22.75;69.49;97209.75;4210116;28;5905;-67
2022/08/20 08:39:56;;;;;;;;;;;;;;;22.75;69.25;97207.03;4210989;28;5659;-68
2022/08/20 08:42:01;;;;;;;;;;;;;;;22.74;69.46;97220.78;4216166;28;5675;-67
2022/08/20 08:44:08;;;;;;;;;;;;;;;22.72;69.16;97215.66;4213357;28;5841;-67
2022/08/20 08:46:12;;;;;;;;;;;;;;;22.74;69.16;97210.00;4211976;28;5738;-62
2022/08/20 08:48:18;;;;;;;;;;;;;;;22.76;69.32;97215.94;4211694;28;5675;-62
2022/08/20 08:50:26;;;;;;;;;;;;;;;22.77;69.40;97213.00;4204519;28;5803;-63
2022/08/20 08:52:52;;;;;;;;;;;;;;;22.80;69.29;97220.56;4200777;28;5813;-62
2022/08/20 08:54:56;;;;;;;;;;;;;;;22.82;68.92;97217.59;4212185;28;5671;-63
2022/08/20 08:57:00;;;;;;;;;;;;;;;22.81;68.93;97224.06;4212361;28;5667;-62
2022/08/20 08:59:06;;;;;;;;;;;;;;;22.80;69.01;97231.34;4209976;28;7170;-63
2022/08/20 09:01:12;;;;;;;;;;;;;;;22.82;68.76;97229.19;4210424;28;5695;-62
2022/08/20 09:03:42;;;;;;;;;;;;;;;22.85;68.75;97238.69;4211642;28;5684;-62
2022/08/20 09:05:46;;;;;;;;;;;;;;;22.88;68.83;97239.00;4209476;28;5817;-62
2022/08/20 09:07:52;;;;;;;;;;;;;;;22.91;68.86;97237.66;4215400;28;5671;-63
2022/08/20 09:09:56;;;;;;;;;;;;;;;22.91;68.77;97234.94;4210143;28;5676;-62
2022/08/20 09:12:05;;;;;;;;;;;;;;;22.93;69.04;97235.50;4211359;28;5703;-63
2022/08/20 09:14:08;;;;;;;;;;;;;;;22.94;68.50;97237.13;4210395;28;5778;-62
2022/08/20 09:16:11;;;;;;;;;;;;;;;22.96;68.45;97232.28;4215316;28;5692;-63
2022/08/20 09:18:13;;;;;;;;;;;;;;;22.95;68.41;97230.66;4211679;28;5822;-62
2022/08/20 09:20:17;;;;;;;;;;;;;;;22.95;68.65;97228.75;4217734;28;5671;-62
2022/08/20 09:22:24;;;;;;;;;;;;;;;22.93;68.40;97236.31;4213700;28;5691;-62
2022/08/20 09:24:27;;;;;;;;;;;;;;;22.93;68.48;97232.81;4214633;28;5891;-62
2022/08/20 09:26:29;;;;;;;;;;;;;;;22.84;68.88;97237.88;4210386;28;5685;-62
2022/08/20 09:28:33;;;;;;;;;;;;;;;22.79;68.46;97229.72;4204319;28;5895;-62
2022/08/20 09:30:36;;;;;;;;;;;;;;;22.81;68.78;97229.47;4210796;28;5650;-62
2022/08/20 09:32:40;;;;;;;;;;;;;;;22.82;68.90;97233.78;4211234;28;5685;-62
2022/08/20 09:34:46;;;;;;;;;;;;;;;22.84;68.55;97237.06;4201482;28;5855;-62
2022/08/20 09:36:48;;;;;;;;;;;;;;;22.83;68.54;97230.84;4202900;28;5680;-62
2022/08/20 09:38:53;;;;;;;;;;;;;;;22.85;68.79;97238.69;4226431;28;5666;-62
2022/08/20 09:40:56;;;;;;;;;;;;;;;22.88;68.63;97232.78;4215743;28;5738;-62
2022/08/20 09:42:58;;;;;;;;;;;;;;;22.93;68.53;97240.88;4209265;28;5935;-61
2022/08/20 09:45:01;;;;;;;;;;;;;;;22.92;68.90;97233.88;4203896;28;7776;-62
2022/08/20 09:47:05;;;;;;;;;;;;;;;22.94;68.86;97232.53;4210221;28;5671;-62
2022/08/20 09:49:08;;;;;;;;;;;;;;;22.99;68.53;97226.38;4206815;28;5695;-62
2022/08/20 09:51:12;;;;;;;;;;;;;;;23.04;68.32;97220.19;4209670;28;5663;-62
2022/08/20 09:53:17;;;;;;;;;;;;;;;23.04;68.21;97226.38;4201745;28;5802;-64
2022/08/20 09:55:28;;;;;;;;;;;;;;;23.05;68.21;97230.69;4205328;28;5790;-67
2022/08/20 09:57:31;;;;;;;;;;;;;;;23.01;68.69;97223.41;4206898;28;5829;-63
2022/08/20 09:59:36;;;;;;;;;;;;;;;23.03;68.49;97219.38;4213431;28;5747;-65
2022/08/20 10:01:39;;;;;;;;;;;;;;;22.98;68.52;97219.34;4212692;28;7330;-66
2022/08/20 10:03:42;;;;;;;;;;;;;;;22.93;68.59;97224.72;4209647;28;5675;-67
2022/08/20 10:05:46;;;;;;;;;;;;;;;23.00;68.17;97232.56;4206681;28;5881;-70
2022/08/20 10:07:50;;;;;;;;;;;;;;;23.01;68.19;97226.13;4209972;28;5772;-66
2022/08/20 10:09:52;;;;;;;;;;;;;;;23.01;68.25;97226.91;4206615;28;6349;-69
2022/08/20 10:11:57;;;;;;;;;;;;;;;23.01;67.83;97224.22;4205817;28;6706;-68
2022/08/20 10:13:59;;;;;;;;;;;;;;;23.02;67.94;97219.63;4226562;27;5647;-69
2022/08/20 10:16:03;;;;;;;;;;;;;;;23.03;68.46;97216.69;4212374;28;5675;-64
2022/08/20 10:18:06;;;;;;;;;;;;;;;23.06;67.71;97218.84;4213126;28;5928;-71
2022/08/20 10:20:13;;;;;;;;;;;;;;;23.04;67.99;97215.59;4215439;28;5739;-68
2022/08/20 10:22:16;;;;;;;;;;;;;;;23.00;68.19;97209.13;4213825;28;6682;-70
2022/08/20 10:24:19;;;;;;;;;;;;;;;23.03;67.95;97211.28;4210423;28;5869;-71
2022/08/20 10:26:22;;;;;;;;;;;;;;;23.03;67.97;97213.97;4212219;28;5755;-68
2022/08/20 10:28:28;;;;;;;;;;;;;;;23.05;68.07;97206.44;4208693;28;5758;-69
2022/08/20 10:30:31;;;;;;;;;;;;;;;23.12;67.70;97208.91;4215030;28;6523;-71
2022/08/20 10:32:34;;;;;;;;;;;;;;;23.18;67.82;97203.25;4218290;28;5742;-72
2022/08/20 10:34:36;;;;;;;;;;;;;;;23.22;67.83;97200.84;4209806;28;5694;-74
2022/08/20 10:36:42;;;;;;;;;;;;;;;23.21;67.85;97194.63;4209347;28;5811;-71
2022/08/20 10:38:45;;;;;;;;;;;;;;;23.21;67.71;97193.81;4215061;28;5726;-72
2022/08/20 10:40:48;;;;;;;;;;;;;;;23.16;67.47;97197.31;4214199;28;5793;-72
2022/08/20 10:42:54;;;;;;;;;;;;;;;23.18;67.43;97197.84;4214421;28;5860;-74
2022/08/20 10:44:58;;;;;;;;;;;;;;;23.21;67.41;97194.63;4208429;28;5755;-71
2022/08/20 10:47:14;;;;;;;;;;;;;;;23.17;67.35;97201.63;4210618;28;5814;-73
2022/08/20 10:49:17;;;;;;;;;;;;;;;23.20;67.53;97194.91;4205572;28;5904;-69
2022/08/20 10:51:20;;;;;;;;;;;;;;;23.24;67.23;97198.72;4206653;28;5812;-71
2022/08/20 10:53:34;;;;;;;;;;;;;;;23.24;67.28;97188.72;4209771;28;6370;-71
2022/08/20 10:55:37;;;;;;;;;;;;;;;23.24;67.13;97188.72;4218018;28;6619;-71
2022/08/20 10:57:42;;;;;;;;;;;;;;;23.26;67.12;97187.66;4219776;28;5663;-73
2022/08/20 10:59:47;;;;;;;;;;;;;;;23.22;66.89;97181.97;4219098;28;5757;-74
2022/08/20 11:01:52;;;;;;;;;;;;;;;23.16;67.12;97183.84;4216798;28;5695;-75
2022/08/20 11:03:54;;;;;;;;;;;;;;;23.16;66.71;97183.84;4219435;28;5672;-75
2022/08/20 11:05:57;;;;;;;;;;;;;;;23.21;66.89;97183.03;4219039;28;5841;-71
2022/08/20 11:08:04;;;;;;;;;;;;;;;23.25;66.55;97184.13;4209907;28;5779;-72
2022/08/20 11:10:09;;;;;;;;;;;;;;;23.31;66.16;97184.97;4210589;28;5766;-68
2022/08/20 11:12:16;;;;;;;;;;;;;;;23.37;65.98;97184.72;4215025;28;5923;-65
2022/08/20 11:14:19;;;;;;;;;;;;;;;23.39;65.89;97179.06;4208809;28;5671;-62
2022/08/20 11:16:22;;;;;;;;;;;;;;;23.43;65.66;97185.53;4215365;28;5667;-64
2022/08/20 11:18:26;;;;;;;;;;;;;;;23.46;65.54;97182.31;4209860;28;5813;-70
2022/08/20 11:20:30;;;;;;;;;;;;;;;23.50;65.80;97180.69;4208035;28;5719;-67
2022/08/20 11:22:33;;;;;;;;;;;;;;;23.51;65.95;97175.03;4212394;28;5853;-66
2022/08/20 11:24:37;;;;;;;;;;;;;;;23.56;65.75;97173.41;4210961;28;5676;-66
2022/08/20 11:26:40;;;;;;;;;;;;;;;23.57;65.71;97178.56;4210565;28;5829;-66
2022/08/20 11:28:43;;;;;;;;;;;;;;;23.58;65.70;97174.81;4208305;28;5798;-69
2022/08/20 11:30:48;;;;;;;;;;;;;;;23.60;65.44;97169.16;4204431;28;5810;-67
2022/08/20 11:32:52;;;;;;;;;;;;;;;23.60;65.62;97161.88;4206622;28;5777;-68
2022/08/20 11:34:56;;;;;;;;;;;;;;;23.61;65.29;97168.88;4210572;28;5688;-71
2022/08/20 11:36:59;;;;;;;;;;;;;;;23.61;65.47;97168.88;4208292;28;6535;-67
2022/08/20 11:39:02;;;;;;;;;;;;;;;23.61;65.04;97166.19;4212427;28;6401;-73
2022/08/20 11:41:05;;;;;;;;;;;;;;;23.62;64.96;97162.41;4205067;28;5846;-77
2022/08/20 11:43:07;;;;;;;;;;;;;;;23.63;64.75;97158.63;4207064;28;5803;-68
2022/08/20 11:45:19;;;;;;;;;;;;;;;23.63;65.05;97153.22;4207540;28;5714;-74
2022/08/20 11:47:26;;;;;;;;;;;;;;;23.65;65.08;97156.47;4212610;28;5798;-78
2022/08/20 11:49:29;;;;;;;;;;;;;;;23.67;64.63;97162.44;4205456;28;5684;-69
2022/08/20 11:51:34;;;;;;;;;;;;;;;23.71;64.41;97160.00;4210636;28;5801;-72
2022/08/20 11:53:51;;;;;;;;;;;;;;;23.74;64.76;97160.25;4213644;28;5907;-80
2022/08/20 11:55:54;;;;;;;;;;;;;;;23.75;64.62;97156.47;4208476;28;5843;-66
2022/08/20 11:57:58;;;;;;;;;;;;;;;23.77;64.29;97165.13;4208054;28;6360;-65
2022/08/20 12:00:07;;;;;;;;;;;;;;;23.80;64.51;97169.19;4210989;28;5679;-68
2022/08/20 12:02:10;;;;;;;;;;;;;;;23.81;64.40;97163.53;4218002;28;5687;-70
2022/08/20 12:04:14;;;;;;;;;;;;;;;23.83;64.32;97167.84;4210757;28;5877;-69
2022/08/20 12:06:17;;;;;;;;;;;;;;;23.88;64.14;97162.44;4215514;28;5758;-69
2022/08/20 12:08:23;;;;;;;;;;;;;;;23.91;64.15;97159.22;4206737;28;5109;-67
2022/08/20 12:10:31;;;;;;;;;;;;;;;23.96;64.04;97161.91;4203009;28;5819;-69
2022/08/20 12:12:33;;;;;;;;;;;;;;;24.00;63.85;97157.56;4212226;28;6543;-72
2022/08/20 12:14:36;;;;;;;;;;;;;;;24.04;64.22;97153.28;4212000;28;6444;-74
2022/08/20 12:16:40;;;;;;;;;;;;;;;24.07;64.01;97161.63;4210174;28;5663;-72
2022/08/20 12:18:43;;;;;;;;;;;;;;;24.11;63.69;97161.88;4212675;28;5805;-71
2022/08/20 12:20:46;;;;;;;;;;;;;;;24.15;63.63;97157.59;4214397;28;5747;-69
2022/08/20 12:22:53;;;;;;;;;;;;;;;24.17;63.82;97160.81;4208524;28;5693;-70
2022/08/20 12:24:58;;;;;;;;;;;;;;;24.18;63.87;97157.03;4210962;28;5866;-71
2022/08/20 12:27:09;;;;;;;;;;;;;;;24.17;63.66;97149.22;4207366;28;5898;-70
2022/08/20 12:29:12;;;;;;;;;;;;;;;24.16;63.53;97153.00;4213783;28;5798;-71
2022/08/20 12:31:15;;;;;;;;;;;;;;;24.16;63.66;97156.50;4211823;28;5675;-70
2022/08/20 12:33:18;;;;;;;;;;;;;;;24.16;63.26;97161.91;4210279;28;5823;-71
2022/08/20 12:35:21;;;;;;;;;;;;;;;24.14;63.11;97164.06;4205170;28;5799;-71
2022/08/20 12:37:27;;;;;;;;;;;;;;;24.16;63.65;97161.09;4206752;28;5704;-65
2022/08/20 12:39:32;;;;;;;;;;;;;;;24.16;63.51;97161.91;4209808;28;5709;-70
2022/08/20 12:41:36;;;;;;;;;;;;;;;24.19;63.14;97161.34;4214496;28;5810;-79
2022/08/20 12:43:39;;;;;;;;;;;;;;;24.22;63.49;97158.09;4211564;28;5791;-81
2022/08/20 12:45:42;;;;;;;;;;;;;;;24.25;62.99;97154.06;4210374;28;5668;-81
2022/08/20 12:47:47;;;;;;;;;;;;;;;24.25;62.85;97152.19;4210381;28;5663;-81
2022/08/20 12:49:52;;;;;;;;;;;;;;;24.28;62.73;97146.22;4222334;28;5616;-71
2022/08/20 12:51:55;;;;;;;;;;;;;;;24.31;62.56;97148.41;4205454;28;6144;-69
2022/08/20 12:53:58;;;;;;;;;;;;;;;24.33;62.55;97148.94;4206123;28;5243;-71
2022/08/20 12:56:03;;;;;;;;;;;;;;;24.32;62.68;97152.72;4204620;28;6327;-70
2022/08/20 12:58:09;;;;;;;;;;;;;;;24.31;62.56;97153.81;4209583;28;5931;-70
2022/08/20 13:00:15;;;;;;;;;;;;;;;24.32;62.75;97154.63;4207979;28;5831;-70
2022/08/20 13:02:20;;;;;;;;;;;;;;;24.32;62.33;97160.81;4206369;28;5806;-70
2022/08/20 13:04:24;;;;;;;;;;;;;;;24.33;62.21;97161.63;4205432;28;6578;-68
2022/08/20 13:06:27;;;;;;;;;;;;;;;24.30;62.17;97149.50;4206784;28;5829;-69
2022/08/20 13:08:30;;;;;;;;;;;;;;;24.31;62.20;97151.09;4207335;28;6329;-68
2022/08/20 13:10:35;;;;;;;;;;;;;;;24.33;62.51;97146.25;4204965;28;6610;-68
2022/08/20 13:12:38;;;;;;;;;;;;;;;24.34;62.39;97153.25;4204919;28;5835;-64
2022/08/20 13:14:42;;;;;;;;;;;;;;;24.37;62.25;97147.31;4205939;28;6521;-68
2022/08/20 13:16:45;;;;;;;;;;;;;;;24.36;62.33;97151.13;4208764;28;5803;-72
2022/08/20 13:18:52;;;;;;;;;;;;;;;24.37;62.20;97147.31;4220728;28;5679;-71
2022/08/20 13:20:55;;;;;;;;;;;;;;;24.39;62.16;97144.34;4218079;28;5837;-68
2022/08/20 13:22:58;;;;;;;;;;;;;;;24.43;62.14;97144.59;4210918;28;5700;-67
2022/08/20 13:25:01;;;;;;;;;;;;;;;24.45;62.06;97148.66;4214079;28;5112;-73
2022/08/20 13:27:06;;;;;;;;;;;;;;;24.47;61.75;97140.28;4204638;28;5697;-74
2022/08/20 13:29:09;;;;;;;;;;;;;;;24.49;62.04;97135.41;4224237;28;5675;-71
2022/08/20 13:31:13;;;;;;;;;;;;;;;24.48;61.86;97142.72;4203831;28;5811;-75
2022/08/20 13:33:16;;;;;;;;;;;;;;;24.48;61.72;97131.91;4204371;28;5679;-67
2022/08/20 13:35:19;;;;;;;;;;;;;;;24.48;62.01;97136.50;4204728;28;6357;-68
2022/08/20 13:37:24;;;;;;;;;;;;;;;24.46;62.22;97127.84;4199337;28;5707;-67
2022/08/20 13:39:27;;;;;;;;;;;;;;;24.47;62.05;97130.28;4199976;28;5791;-67
2022/08/20 13:41:30;;;;;;;;;;;;;;;24.46;61.79;97127.84;4214403;28;5848;-68
2022/08/20 13:43:33;;;;;;;;;;;;;;;24.44;62.14;97122.72;4213997;28;5823;-70
2022/08/20 13:45:37;;;;;;;;;;;;;;;24.42;61.84;97116.78;4206281;28;5663;-71
2022/08/20 13:47:41;;;;;;;;;;;;;;;24.41;62.17;97115.16;4208181;28;5708;-71
2022/08/20 13:49:44;;;;;;;;;;;;;;;24.37;62.35;97114.91;4208986;28;5663;-71
2022/08/20 13:51:47;;;;;;;;;;;;;;;24.37;62.18;97114.91;4214670;28;5759;-66
2022/08/20 13:53:53;;;;;;;;;;;;;;;24.41;61.97;97120.56;4202831;28;5675;-66
2022/08/20 13:55:56;;;;;;;;;;;;;;;24.39;61.79;97120.03;4216339;28;5696;-66
2022/08/20 13:58:04;;;;;;;;;;;;;;;24.38;61.73;97118.41;4219577;28;5687;-65
2022/08/20 14:00:12;;;;;;;;;;;;;;;24.38;61.76;97118.41;4208198;28;5780;-67
2022/08/20 14:02:17;;;;;;;;;;;;;;;24.39;61.79;97117.31;4213210;28;5750;-68
2022/08/20 14:04:21;;;;;;;;;;;;;;;24.40;61.79;97118.94;4203202;28;5680;-68
2022/08/20 14:06:24;;;;;;;;;;;;;;;24.42;61.96;97118.66;4208841;28;5662;-67
2022/08/20 14:08:27;;;;;;;;;;;;;;;24.41;61.85;97119.75;4219920;28;6386;-69
2022/08/20 14:10:31;;;;;;;;;;;;;;;24.47;61.87;97118.69;4219484;28;6413;-69
2022/08/20 14:12:35;;;;;;;;;;;;;;;24.46;62.01;97115.13;4225623;28;5654;-67
2022/08/20 14:14:37;;;;;;;;;;;;;;;24.46;61.80;97115.13;4208053;27;5795;-69
2022/08/20 14:16:41;;;;;;;;;;;;;;;24.49;61.59;97121.91;4206173;28;5700;-73
2022/08/20 14:18:43;;;;;;;;;;;;;;;24.48;61.57;97115.69;4222152;28;5088;-71
2022/08/20 14:20:52;;;;;;;;;;;;;;;24.50;61.60;97121.63;4222469;28;5791;-64
2022/08/20 14:22:55;;;;;;;;;;;;;;;24.52;61.85;97124.84;4216070;28;5833;-68
2022/08/20 14:25:01;;;;;;;;;;;;;;;24.54;61.74;97119.19;4211506;28;5723;-74
2022/08/20 14:27:05;;;;;;;;;;;;;;;24.55;61.68;97118.91;4215424;28;5885;-75
2022/08/20 14:29:07;;;;;;;;;;;;;;;24.55;61.75;97115.38;4214855;28;5801;-75
2022/08/20 14:31:10;;;;;;;;;;;;;;;24.54;61.48;97114.56;4214092;28;5676;-70
2022/08/20 14:33:13;;;;;;;;;;;;;;;24.55;61.83;97115.38;4212515;28;5726;-69
2022/08/20 14:35:16;;;;;;;;;;;;;;;24.53;61.66;97112.16;4206499;28;5823;-74
2022/08/20 14:37:24;;;;;;;;;;;;;;;24.54;61.46;97116.47;4217459;28;5715;-74
2022/08/20 14:39:27;;;;;;;;;;;;;;;24.54;61.76;97116.47;4212885;28;5675;-68
2022/08/20 14:41:29;;;;;;;;;;;;;;;24.55;61.67;97116.19;4212090;28;5877;-71
2022/08/20 14:43:32;;;;;;;;;;;;;;;24.56;61.39;97115.09;4214152;28;5668;-69
2022/08/20 14:45:35;;;;;;;;;;;;;;;24.57;61.43;97115.91;4213911;28;6653;-68
2022/08/20 14:47:40;;;;;;;;;;;;;;;24.56;61.30;97117.00;4213601;28;5766;-70
2022/08/20 14:49:44;;;;;;;;;;;;;;;24.55;61.33;97118.91;4216514;28;5082;-66
2022/08/20 14:51:47;;;;;;;;;;;;;;;24.56;61.28;97112.41;4215949;28;5973;-71
2022/08/20 14:53:51;;;;;;;;;;;;;;;24.55;61.36;97109.97;4212358;28;5797;-64
2022/08/20 14:55:54;;;;;;;;;;;;;;;24.53;61.22;97112.97;4218718;28;5691;-73
2022/08/20 14:57:58;;;;;;;;;;;;;;;24.50;61.18;97107.31;4217124;28;5815;-67
2022/08/20 15:00:01;;;;;;;;;;;;;;;24.47;61.42;97102.47;4210929;28;5688;-66
2022/08/20 15:02:04;;;;;;;;;;;;;;;24.44;61.51;97102.97;4216809;28;5708;-66
2022/08/20 15:04:07;;;;;;;;;;;;;;;24.43;61.16;97102.19;4220377;28;5227;-70
2022/08/20 15:06:10;;;;;;;;;;;;;;;24.38;61.53;97105.72;4205235;28;5700;-70
2022/08/20 15:08:24;;;;;;;;;;;;;;;24.34;61.54;97104.63;4206942;28;5764;-71
2022/08/20 15:10:33;;;;;;;;;;;;;;;24.26;61.36;97096.25;4212957;28;5831;-70
2022/08/20 15:12:36;;;;;;;;;;;;;;;24.23;61.22;97096.78;4213476;28;6395;-70
2022/08/20 15:14:38;;;;;;;;;;;;;;;24.23;61.44;97102.19;4207434;28;5681;-70
2022/08/20 15:16:42;;;;;;;;;;;;;;;24.21;61.41;97088.94;4210642;28;5691;-71
2022/08/20 15:18:45;;;;;;;;;;;;;;;24.23;61.82;97092.19;4205179;28;5696;-70
2022/08/20 15:20:48;;;;;;;;;;;;;;;24.23;61.35;97086.78;4202683;28;5791;-70
2022/08/20 15:22:51;;;;;;;;;;;;;;;24.24;61.34;97088.44;4218784;28;5818;-70
2022/08/20 15:24:54;;;;;;;;;;;;;;;24.26;61.30;97088.16;4218997;28;7683;-70
2022/08/20 15:27:11;;;;;;;;;;;;;;;24.27;61.62;97082.47;4205741;28;5709;-69
2022/08/20 15:29:14;;;;;;;;;;;;;;;24.29;61.37;97074.91;4202127;28;5699;-69
2022/08/20 15:31:25;;;;;;;;;;;;;;;24.32;61.36;97073.56;4202171;28;5783;-70
2022/08/20 15:33:28;;;;;;;;;;;;;;;24.33;61.35;97067.06;4205000;28;5746;-69
2022/08/20 15:35:31;;;;;;;;;;;;;;;24.35;61.13;97062.19;4218303;28;6509;-70
2022/08/20 15:37:33;;;;;;;;;;;;;;;24.35;60.91;97063.03;4218330;28;5663;-69
2022/08/20 15:39:36;;;;;;;;;;;;;;;24.37;60.61;97060.88;4217037;28;5834;-69
2022/08/20 15:41:39;;;;;;;;;;;;;;;24.39;60.46;97063.28;4218359;28;5815;-69
2022/08/20 15:43:43;;;;;;;;;;;;;;;24.38;60.29;97057.06;4218352;28;5664;-69
2022/08/20 15:45:46;;;;;;;;;;;;;;;24.41;60.58;97057.59;4217889;28;5668;-69
2022/08/20 15:47:53;;;;;;;;;;;;;;;24.39;60.43;97056.00;4217217;28;5703;-69
2022/08/20 15:50:01;;;;;;;;;;;;;;;24.39;60.21;97061.41;4218574;28;5655;-69
2022/08/20 15:52:04;;;;;;;;;;;;;;;24.39;59.80;97058.69;4218293;28;5659;-70
2022/08/20 15:54:17;;;;;;;;;;;;;;;24.41;59.92;97053.00;4218245;28;5766;-70
2022/08/20 15:56:32;;;;;;;;;;;;;;;24.43;59.86;97055.44;4218575;28;5722;-70
2022/08/20 15:58:39;;;;;;;;;;;;;;;24.43;59.41;97047.31;4218638;28;5690;-70
2022/08/20 16:00:50;;;;;;;;;;;;;;;24.43;59.34;97053.53;4218032;28;6748;-69
2022/08/20 16:03:21;;;;;;;;;;;;;;;24.45;59.24;97055.97;4218237;28;6714;-70
2022/08/20 16:05:35;;;;;;;;;;;;;;;24.46;58.70;97057.56;4217503;28;5672;-70
2022/08/20 16:07:49;;;;;;;;;;;;;;;24.46;58.54;97057.56;4215652;28;5759;-70
2022/08/20 16:10:03;;;;;;;;;;;;;;;24.46;58.36;97062.97;4214283;28;5687;-70
2022/08/20 16:12:10;;;;;;;;;;;;;;;24.46;58.27;97054.88;4212482;28;5688;-70
2022/08/20 16:14:15;;;;;;;;;;;;;;;24.46;58.16;97068.38;4216828;28;5771;-70
2022/08/20 16:16:26;;;;;;;;;;;;;;;24.46;58.13;97058.38;4214778;28;5679;-70
2022/08/20 16:18:34;;;;;;;;;;;;;;;24.48;57.94;97058.94;4217411;28;5688;-69
2022/08/20 16:20:41;;;;;;;;;;;;;;;24.51;58.23;97062.97;4212696;28;5762;-69
2022/08/20 16:22:46;;;;;;;;;;;;;;;24.53;58.04;97061.63;4210535;28;5820;-70
2022/08/20 16:24:50;;;;;;;;;;;;;;;24.55;58.17;97072.16;4207681;28;5675;-69
2022/08/20 16:27:04;;;;;;;;;;;;;;;24.57;57.68;97069.97;4216270;28;5676;-69
2022/08/20 16:29:10;;;;;;;;;;;;;;;24.58;57.46;97064.31;4217813;28;5698;-69
2022/08/20 16:31:18;;;;;;;;;;;;;;;24.57;57.71;97059.16;4217338;28;5687;-69
2022/08/20 16:33:31;;;;;;;;;;;;;;;24.58;57.41;97058.91;4217698;28;5671;-69
2022/08/20 16:35:37;;;;;;;;;;;;;;;24.60;57.58;97064.03;4217496;28;5714;-69
2022/08/20 16:37:44;;;;;;;;;;;;;;;24.60;57.07;97066.75;4217170;28;5667;-69
2022/08/20 16:39:55;;;;;;;;;;;;;;;24.60;56.90;97054.03;4217549;28;5747;-69
2022/08/20 16:41:59;;;;;;;;;;;;;;;24.62;57.08;97051.06;4208760;28;5787;-69
2022/08/20 16:44:15;;;;;;;;;;;;;;;24.64;56.82;97055.09;4215668;28;5845;-68
2022/08/20 16:46:21;;;;;;;;;;;;;;;24.67;56.35;97053.72;4217016;28;5755;-69
2022/08/20 16:48:33;;;;;;;;;;;;;;;24.69;56.33;97054.28;4215928;28;7262;-70
2022/08/20 16:50:45;;;;;;;;;;;;;;;24.71;56.50;97049.38;4200296;28;5701;-70